FVMW weather

Murewa Airport
Murewa, Mashonaland East Province, Zimbabwe

Public forecast

Using degrees Celsius for public forecast. Weather courtesy of forecast.io.

Closest aviation weather report (METAR) to Murewa Airport

Report is more than 6 hours old.

Closest report is Robert Gabriel Mugabe International Airport, 43.8 nm (81.2 km) WSW. Retrieved 2019/10/16 15:00 UTC (8 hours ago):

FVRG 161500Z 15010KT CAVOK 24/02 Q1023 NOSIG

Closest aviation forecast (TAF) to Murewa Airport

Forecast is more than 12 hours old.

Closest forecast is Robert Gabriel Mugabe International Airport, 43.8 nm (81.2 km) WSW. Retrieved 2019/10/16 06:00 UTC (17 hours ago):

TAF FVRG 160400Z 1606/1712 10008KT CAVOK